Time;durP1;ratioP1;P1;durP2;ratioP2;P2;SDS_P1;SDS_P2;PMS_P1;PMS_P2;Temp;Humidity;BMP_temperature;BMP_pressure;BME280_temperature;BME280_humidity;BME280_pressure;Samples;Min_cycle;Max_cycle;Signal;HPM_P1;HPM_P2
2024/01/12 00:01:43;;;;;;;27.20;17.02;;;0.50;1.00;;;;;;5289376;27;20039;-32
2024/01/12 00:04:17;;;;;;;33.53;17.02;;;0.50;1.00;;;;;;5292126;27;20034;-32
2024/01/12 00:06:50;;;;;;;32.80;15.80;;;0.50;1.00;;;;;;5292947;27;20381;-32
2024/01/12 00:09:24;;;;;;;33.58;17.10;;;0.50;1.00;;;;;;5311875;27;20208;-32
2024/01/12 00:11:55;;;;;;;29.80;17.67;;;0.50;1.00;;;;;;5309450;27;20023;-31
2024/01/12 00:14:26;;;;;;;31.67;15.77;;;0.40;1.00;;;;;;5302092;27;20339;-31
2024/01/12 00:16:57;;;;;;;31.92;18.65;;;0.40;1.00;;;;;;5284824;27;20280;-31
2024/01/12 00:19:31;;;;;;;31.02;16.60;;;0.30;1.00;;;;;;5306467;27;20339;-31
2024/01/12 00:22:04;;;;;;;34.33;18.00;;;0.20;1.00;;;;;;5310927;27;20215;-31
2024/01/12 00:24:40;;;;;;;31.92;14.77;;;0.20;1.00;;;;;;5310349;27;20226;-31
2024/01/12 00:27:11;;;;;;;39.90;20.15;;;0.20;1.00;;;;;;5303207;27;20027;-31
2024/01/12 00:29:49;;;;;;;33.75;14.13;;;0.20;1.00;;;;;;5311175;27;20344;-32
2024/01/12 00:32:22;;;;;;;29.60;16.30;;;0.20;1.00;;;;;;5288630;27;20027;-31
2024/01/12 00:34:53;;;;;;;37.05;17.98;;;0.20;1.00;;;;;;5273354;27;20034;-31
2024/01/12 00:37:29;;;;;;;34.58;18.15;;;0.20;1.00;;;;;;5286430;27;20035;-31
2024/01/12 00:40:01;;;;;;;35.25;18.80;;;0.20;1.00;;;;;;5291658;28;20038;-31
2024/01/12 00:42:32;;;;;;;31.77;18.63;;;0.20;1.00;;;;;;5311344;28;20038;-32
2024/01/12 00:45:07;;;;;;;36.33;19.25;;;0.10;1.00;;;;;;5290982;28;20042;-34
2024/01/12 00:47:41;;;;;;;34.40;18.20;;;0.10;1.00;;;;;;5253876;28;20042;-31
2024/01/12 00:50:14;;;;;;;35.28;18.60;;;0.10;1.00;;;;;;5296488;28;20034;-31
2024/01/12 00:52:51;;;;;;;28.38;15.20;;;0.00;1.00;;;;;;5299850;28;20039;-31
2024/01/12 00:55:24;;;;;;;29.65;16.90;;;0.10;1.00;;;;;;5299169;28;20027;-31
2024/01/12 00:57:55;;;;;;;30.10;17.20;;;0.10;1.00;;;;;;5290528;28;20117;-31
2024/01/12 01:00:27;;;;;;;31.63;16.95;;;0.00;1.00;;;;;;5288537;28;20035;-31
2024/01/12 01:03:02;;;;;;;43.17;18.92;;;0.00;1.00;;;;;;5308025;28;20035;-31
2024/01/12 01:05:36;;;;;;;35.80;16.30;;;0.10;1.00;;;;;;5290205;28;20027;-31
2024/01/12 01:08:10;;;;;;;31.98;15.70;;;0.00;1.00;;;;;;5263311;28;20035;-31
2024/01/12 01:10:46;;;;;;;33.97;17.55;;;0.10;1.00;;;;;;5293108;28;20230;-32
2024/01/12 01:13:20;;;;;;;31.92;15.85;;;0.00;1.00;;;;;;5307064;28;20023;-31
2024/01/12 01:15:55;;;;;;;22.75;12.25;;;0.00;1.00;;;;;;5272391;28;20035;-32
2024/01/12 01:18:30;;;;;;;35.65;17.08;;;0.00;1.00;;;;;;5270824;28;20043;-32
2024/01/12 01:21:03;;;;;;;;;;;0.00;1.00;;;;;;5302691;28;20027;-32
2024/01/12 01:23:37;;;;;;;32.90;16.05;;;-0.10;1.00;;;;;;5300239;28;20075;-32
2024/01/12 01:26:13;;;;;;;37.47;16.23;;;-0.10;1.00;;;;;;5289770;28;20323;-32
2024/01/12 01:28:50;;;;;;;33.50;17.65;;;-0.10;1.00;;;;;;5272259;28;20034;-32
2024/01/12 01:31:21;;;;;;;29.23;13.77;;;-0.10;1.00;;;;;;5290311;27;20062;-32
2024/01/12 01:33:55;;;;;;;33.20;17.13;;;-0.10;1.00;;;;;;5310187;27;20046;-32
2024/01/12 01:36:29;;;;;;;32.40;15.25;;;-0.10;1.00;;;;;;5303315;27;20031;-32
2024/01/12 01:39:02;;;;;;;;;;;-0.10;1.00;;;;;;5314425;27;20027;-31
2024/01/12 01:41:36;;;;;;;31.35;16.42;;;-0.10;1.00;;;;;;5314282;27;19908;-32
2024/01/12 01:44:09;;;;;;;;;;;-0.10;1.00;;;;;;5314717;27;20033;-32
2024/01/12 01:46:46;;;;;;;29.05;14.77;;;-0.20;16.80;;;;;;5296621;27;20242;-32
2024/01/12 01:49:20;;;;;;;32.63;14.93;;;-0.20;23.80;;;;;;5312192;27;20031;-32
2024/01/12 01:51:55;;;;;;;33.67;15.25;;;-0.10;36.30;;;;;;5307692;27;20028;-32
2024/01/12 01:54:27;;;;;;;30.13;15.93;;;-0.20;66.40;;;;;;5313220;27;20739;-32
2024/01/12 01:57:01;;;;;;;34.17;15.88;;;-0.20;86.60;;;;;;5274894;28;20032;-31
2024/01/12 01:59:37;;;;;;;34.55;16.50;;;-0.20;99.90;;;;;;5306971;27;20039;-32
2024/01/12 02:02:09;;;;;;;30.85;15.27;;;-0.20;99.90;;;;;;5303935;27;20030;-35
2024/01/12 02:04:42;;;;;;;31.23;13.73;;;-0.20;99.90;;;;;;5312941;27;20038;-31
2024/01/12 02:07:13;;;;;;;35.63;15.50;;;-0.20;99.90;;;;;;5313353;27;20041;-31
2024/01/12 02:09:45;;;;;;;31.90;16.42;;;-0.20;99.90;;;;;;5305376;27;20038;-31
2024/01/12 02:12:18;;;;;;;29.70;14.93;;;-0.30;99.90;;;;;;5306857;27;20031;-32
2024/01/12 02:14:52;;;;;;;27.50;13.65;;;-0.40;1.00;;;;;;5302749;27;20019;-31
2024/01/12 02:17:26;;;;;;;25.80;11.93;;;-0.40;1.00;;;;;;5309729;27;20031;-35
2024/01/12 02:19:58;;;;;;;34.17;17.45;;;-0.40;1.00;;;;;;5314044;27;20345;-31
2024/01/12 02:22:31;;;;;;;24.60;13.70;;;-0.50;1.00;;;;;;5310759;27;20039;-30
2024/01/12 02:25:06;;;;;;;27.13;12.43;;;-0.50;99.90;;;;;;5309154;27;20035;-30
2024/01/12 02:27:37;;;;;;;24.08;13.45;;;-0.50;99.90;;;;;;5284871;27;20041;-31
2024/01/12 02:30:11;;;;;;;32.38;16.25;;;-0.60;1.00;;;;;;5306617;27;20300;-31
2024/01/12 02:32:42;;;;;;;25.83;15.07;;;-0.60;1.00;;;;;;5309702;27;20015;-31
2024/01/12 02:35:16;;;;;;;32.00;13.70;;;-0.60;1.00;;;;;;5313742;27;20050;-32
2024/01/12 02:37:47;;;;;;;28.80;14.18;;;-0.70;99.90;;;;;;5310587;27;20203;-32
2024/01/12 02:40:23;;;;;;;24.33;13.20;;;-0.70;1.00;;;;;;5293731;27;20361;-32
2024/01/12 02:42:55;;;;;;;31.40;15.32;;;-0.70;1.00;;;;;;5312729;27;20023;-31
2024/01/12 02:45:26;;;;;;;31.13;14.65;;;-0.70;1.00;;;;;;5309805;27;20165;-31
2024/01/12 02:47:59;;;;;;;21.10;13.80;;;-0.80;1.00;;;;;;5306803;27;20192;-31
2024/01/12 02:50:31;;;;;;;36.72;16.33;;;-0.80;25.40;;;;;;5297932;27;20045;-32
2024/01/12 02:53:02;;;;;;;24.20;14.20;;;-0.80;99.90;;;;;;5289207;27;20042;-31
2024/01/12 02:55:33;;;;;;;34.28;16.60;;;-0.80;99.90;;;;;;5285161;28;20040;-31
2024/01/12 02:58:04;;;;;;;24.80;14.20;;;-0.80;1.00;;;;;;5301629;27;20023;-31
2024/01/12 03:00:36;;;;;;;26.83;13.73;;;-0.80;1.00;;;;;;5288997;27;20551;-32
2024/01/12 03:03:07;;;;;;;32.25;16.58;;;-0.80;1.00;;;;;;5313170;27;20037;-32
2024/01/12 03:05:38;;;;;;;25.00;13.00;;;-0.80;1.00;;;;;;5313655;27;20031;-31
2024/01/12 03:08:12;;;;;;;25.75;13.90;;;-0.80;1.00;;;;;;5276402;27;20031;-33
2024/01/12 03:10:46;;;;;;;34.55;16.35;;;-0.90;1.00;;;;;;5309653;27;20031;-33
2024/01/12 03:13:17;;;;;;;27.70;15.50;;;-0.80;1.00;;;;;;5306784;27;20019;-33
2024/01/12 03:15:51;;;;;;;26.80;13.55;;;-0.90;1.00;;;;;;5288787;27;20383;-33
2024/01/12 03:18:22;;;;;;;34.35;12.50;;;-0.90;1.00;;;;;;5312016;27;20084;-32
2024/01/12 03:20:53;;;;;;;33.13;15.43;;;-0.90;1.00;;;;;;5309847;27;20027;-32
2024/01/12 03:23:27;;;;;;;31.40;16.55;;;-0.80;1.00;;;;;;5312332;27;20299;-32
2024/01/12 03:25:58;;;;;;;35.40;16.70;;;-0.80;1.00;;;;;;5300846;27;20035;-31
2024/01/12 03:28:30;;;;;;;36.13;16.75;;;-0.90;1.00;;;;;;5310922;27;20100;-31
2024/01/12 03:31:02;;;;;;;37.53;17.38;;;-0.90;1.00;;;;;;5307128;27;20041;-31
2024/01/12 03:33:36;;;;;;;29.02;15.95;;;-0.90;1.00;;;;;;5311049;27;20030;-32
2024/01/12 03:36:12;;;;;;;26.42;13.43;;;-0.90;1.00;;;;;;5311627;27;20027;-32
2024/01/12 03:38:44;;;;;;;33.03;16.90;;;-0.90;1.00;;;;;;5290066;28;20027;-32
2024/01/12 03:41:16;;;;;;;33.97;16.95;;;-0.80;1.00;;;;;;5285295;27;20035;-37
2024/01/12 03:43:51;;;;;;;34.85;18.10;;;-0.90;1.00;;;;;;5290621;28;20033;-31
2024/01/12 03:46:24;;;;;;;33.45;17.73;;;-0.80;1.00;;;;;;5292336;27;20303;-31
2024/01/12 03:48:56;;;;;;;28.77;12.65;;;-0.90;1.00;;;;;;5306786;27;20037;-31
2024/01/12 03:51:27;;;;;;;30.35;15.38;;;-0.80;1.00;;;;;;5308356;27;20041;-31
2024/01/12 03:54:01;;;;;;;35.03;16.90;;;-0.80;1.00;;;;;;5310730;27;20034;-31
2024/01/12 03:56:41;;;;;;;28.80;15.73;;;-0.90;1.00;;;;;;5312947;27;20026;-32
2024/01/12 03:59:16;;;;;;;27.13;16.35;;;-0.80;1.00;;;;;;5312933;27;20027;-31
2024/01/12 04:01:51;;;;;;;39.92;18.25;;;-0.80;1.00;;;;;;5310920;27;20027;-30
2024/01/12 04:04:23;;;;;;;33.65;17.88;;;-0.80;1.00;;;;;;5318243;27;20215;-31
2024/01/12 04:07:00;;;;;;;46.85;19.77;;;-0.80;1.00;;;;;;5310834;27;20022;-31
2024/01/12 04:09:34;;;;;;;34.88;16.67;;;-0.90;1.00;;;;;;5307704;27;20216;-31
2024/01/12 04:12:06;;;;;;;40.33;20.08;;;-0.80;1.00;;;;;;5313605;27;20353;-31
2024/01/12 04:14:37;;;;;;;40.92;19.65;;;-0.80;1.00;;;;;;5313286;27;20026;-31
2024/01/12 04:17:12;;;;;;;40.65;20.83;;;-0.80;1.00;;;;;;5297782;27;20253;-31
2024/01/12 04:19:43;;;;;;;41.45;18.25;;;-0.90;1.00;;;;;;5310851;27;20224;-31
2024/01/12 04:22:19;;;;;;;32.38;17.75;;;-0.90;1.00;;;;;;5312870;27;20030;-31
2024/01/12 04:24:50;;;;;;;28.98;15.52;;;-0.90;1.00;;;;;;5276955;27;20039;-31
2024/01/12 04:27:21;;;;;;;35.30;16.95;;;-0.90;1.00;;;;;;5301288;27;20050;-31
2024/01/12 04:29:55;;;;;;;33.72;15.32;;;-0.90;1.00;;;;;;5309170;27;20035;-31
2024/01/12 04:32:29;;;;;;;33.47;16.58;;;-0.90;1.00;;;;;;5306958;27;20223;-31
2024/01/12 04:35:03;;;;;;;34.45;16.10;;;-0.90;1.00;;;;;;5312953;27;20212;-31
2024/01/12 04:37:34;;;;;;;;;;;-0.90;1.00;;;;;;5284734;27;20035;-31
2024/01/12 04:40:07;;;;;;;27.10;14.38;;;-0.90;99.90;;;;;;5312228;27;19914;-35
2024/01/12 04:42:40;;;;;;;32.28;16.67;;;-0.90;99.90;;;;;;5300057;27;20032;-32
2024/01/12 04:45:11;;;;;;;33.13;14.77;;;-0.90;99.90;;;;;;5287797;28;20038;-32
2024/01/12 04:47:46;;;;;;;24.50;14.20;;;-0.90;1.00;;;;;;5290805;28;20031;-32
2024/01/12 04:50:20;;;;;;;25.65;16.20;;;-0.90;1.00;;;;;;5295138;28;20031;-31
2024/01/12 04:52:52;;;;;;;27.02;12.88;;;-0.90;1.00;;;;;;5311789;28;20214;-32
2024/01/12 04:55:23;;;;;;;35.08;18.65;;;-0.90;99.90;;;;;;5271165;28;20035;-32
2024/01/12 04:57:56;;;;;;;25.00;13.93;;;-0.90;99.90;;;;;;5269559;28;20406;-31
2024/01/12 05:00:31;;;;;;;37.50;18.17;;;-0.80;99.90;;;;;;5282821;28;20043;-31
2024/01/12 05:03:07;;;;;;;22.80;13.77;;;-0.80;99.90;;;;;;5312424;28;20029;-31
2024/01/12 05:05:43;;;;;;;32.90;17.77;;;-0.90;99.90;;;;;;5292933;28;20030;-32
2024/01/12 05:08:19;;;;;;;22.33;11.63;;;-0.80;99.90;;;;;;5296029;27;20053;-32
2024/01/12 05:10:51;;;;;;;33.03;16.88;;;-0.80;99.90;;;;;;5317029;27;20794;-32
2024/01/12 05:13:27;;;;;;;31.88;16.75;;;-0.80;99.90;;;;;;5316052;27;20215;-34
2024/01/12 05:16:03;;;;;;;31.13;14.93;;;-0.80;99.90;;;;;;5287867;27;20736;-31
2024/01/12 05:18:37;;;;;;;32.97;17.25;;;-0.80;99.90;;;;;;5308275;27;20047;-31
2024/01/12 05:21:11;;;;;;;34.97;16.85;;;-0.80;99.90;;;;;;5314393;27;20023;-31
2024/01/12 05:23:44;;;;;;;30.30;16.08;;;-0.80;99.90;;;;;;5308707;27;20314;-31
2024/01/12 05:26:15;;;;;;;38.00;17.50;;;-0.80;99.90;;;;;;5307074;27;20019;-31
2024/01/12 05:28:48;;;;;;;28.63;14.95;;;-0.80;99.90;;;;;;5313448;27;20037;-30
2024/01/12 05:31:26;;;;;;;27.92;14.35;;;-0.80;99.90;;;;;;5302142;27;20027;-31
2024/01/12 05:33:57;;;;;;;36.42;17.40;;;-0.80;99.90;;;;;;5313782;27;20023;-31
2024/01/12 05:36:29;;;;;;;38.95;18.48;;;-0.80;1.00;;;;;;5286019;27;20035;-31
2024/01/12 05:39:02;;;;;;;27.60;13.93;;;-0.80;1.00;;;;;;5317471;27;20013;-33
2024/01/12 05:41:38;;;;;;;38.58;17.42;;;-0.80;1.00;;;;;;5315118;27;20227;-31
2024/01/12 05:44:12;;;;;;;31.45;15.52;;;-0.80;1.00;;;;;;5315549;27;20033;-31
2024/01/12 05:46:43;;;;;;;36.67;16.83;;;-0.80;1.00;;;;;;5307618;27;20258;-31
2024/01/12 05:49:16;;;;;;;37.85;17.20;;;-0.80;1.00;;;;;;5302706;27;20054;-33
2024/01/12 05:51:48;;;;;;;33.30;16.70;;;-0.80;1.00;;;;;;5287590;27;20409;-33
2024/01/12 05:54:21;;;;;;;36.75;17.23;;;-0.80;1.00;;;;;;5282552;27;20035;-33
2024/01/12 05:56:56;;;;;;;35.20;17.55;;;-0.80;1.00;;;;;;5306774;27;20038;-32
2024/01/12 05:59:32;;;;;;;30.40;15.25;;;-0.80;1.00;;;;;;5310415;27;20047;-32
2024/01/12 06:02:04;;;;;;;34.10;16.05;;;-0.90;69.80;;;;;;5311014;27;20043;-32
2024/01/12 06:04:35;;;;;;;33.80;15.88;;;-0.80;99.90;;;;;;5292840;27;20038;-32
2024/01/12 06:07:09;;;;;;;30.27;15.30;;;-0.90;99.90;;;;;;5303747;27;20311;-32
2024/01/12 06:09:43;;;;;;;43.55;19.13;;;-0.90;99.90;;;;;;5309925;27;20031;-32
2024/01/12 06:12:14;;;;;;;;;;;-0.90;99.90;;;;;;5317172;27;20023;-34
2024/01/12 06:14:46;;;;;;;27.08;12.90;;;-0.90;1.00;;;;;;5313175;27;19933;-32
2024/01/12 06:17:17;;;;;;;24.63;13.82;;;-0.90;1.00;;;;;;5282605;27;20019;-32
2024/01/12 06:19:54;;;;;;;34.15;16.52;;;-0.90;1.00;;;;;;5309550;27;20016;-32
2024/01/12 06:22:25;;;;;;;32.53;16.25;;;-0.90;1.00;;;;;;5304981;27;20241;-32
2024/01/12 06:24:56;;;;;;;35.35;17.08;;;-0.90;1.00;;;;;;5312297;27;20041;-32
2024/01/12 06:27:29;;;;;;;30.15;15.23;;;-0.90;1.00;;;;;;5301637;27;20034;-31
2024/01/12 06:30:03;;;;;;;27.48;15.13;;;-0.90;1.00;;;;;;5283362;27;20569;-32
2024/01/12 06:32:40;;;;;;;32.25;17.55;;;-0.90;1.00;;;;;;5297942;27;20033;-33
2024/01/12 06:35:11;;;;;;;22.52;11.98;;;-0.90;1.00;;;;;;5313961;27;20049;-32
2024/01/12 06:37:45;;;;;;;25.73;14.20;;;-0.80;1.00;;;;;;5315470;27;20049;-32
2024/01/12 06:40:21;;;;;;;33.40;16.35;;;-0.80;1.00;;;;;;5307665;27;20037;-32
2024/01/12 06:42:56;;;;;;;29.75;15.93;;;-0.80;1.00;;;;;;5314731;27;20304;-32
2024/01/12 06:45:31;;;;;;;33.05;14.75;;;-0.80;1.00;;;;;;5310192;27;20043;-31
2024/01/12 06:48:05;;;;;;;41.83;18.75;;;-0.80;1.00;;;;;;5310632;27;20035;-32
2024/01/12 06:50:36;;;;;;;;;;;-0.80;1.00;;;;;;5287571;27;20034;-32
2024/01/12 06:53:10;;;;;;;31.52;15.35;;;-0.80;1.00;;;;;;5276371;27;20282;-32
2024/01/12 06:55:44;;;;;;;;;;;-0.80;1.00;;;;;;5315691;27;20029;-31
2024/01/12 06:58:19;;;;;;;28.75;13.80;;;-0.80;1.00;;;;;;5314151;27;19907;-31
2024/01/12 07:00:52;;;;;;;36.17;16.77;;;-0.80;1.00;;;;;;5283291;27;20027;-31
2024/01/12 07:03:23;;;;;;;30.50;15.68;;;-0.80;99.90;;;;;;5297034;27;20031;-32
2024/01/12 07:05:57;;;;;;;35.78;16.88;;;-0.80;99.90;;;;;;5314240;27;20023;-32
2024/01/12 07:08:28;;;;;;;30.73;16.40;;;-0.70;99.90;;;;;;5314433;27;20053;-32
2024/01/12 07:11:05;;;;;;;27.70;14.55;;;-0.70;1.00;;;;;;5282032;28;20300;-34
2024/01/12 07:13:36;;;;;;;38.33;16.63;;;-0.60;1.00;;;;;;5293326;28;20023;-32
2024/01/12 07:16:08;;;;;;;26.67;15.48;;;-0.60;1.00;;;;;;5300465;27;20019;-32
2024/01/12 07:18:42;;;;;;;34.17;17.88;;;-0.60;1.00;;;;;;5314252;27;20031;-32
2024/01/12 07:21:19;;;;;;;29.77;14.73;;;-0.60;1.00;;;;;;5280971;27;20030;-32
2024/01/12 07:23:52;;;;;;;33.08;16.50;;;-0.60;1.00;;;;;;5290997;27;20033;-31
2024/01/12 07:26:23;;;;;;;32.95;14.82;;;-0.50;1.00;;;;;;5299652;27;20035;-32
2024/01/12 07:29:00;;;;;;;23.50;12.75;;;-0.50;99.90;;;;;;5313453;27;20025;-32
2024/01/12 07:31:35;;;;;;;35.75;18.33;;;-0.60;99.90;;;;;;5303800;27;20375;-32
2024/01/12 07:34:06;;;;;;;28.90;14.52;;;-0.50;99.90;;;;;;5312211;27;20025;-32
2024/01/12 07:36:38;;;;;;;29.45;15.15;;;-0.60;99.90;;;;;;5313332;27;20019;-32
2024/01/12 07:39:10;;;;;;;31.80;16.33;;;-0.60;99.90;;;;;;5312460;27;20023;-32
2024/01/12 07:41:42;;;;;;;36.50;16.27;;;-0.50;99.90;;;;;;5309887;27;20033;-32
2024/01/12 07:44:17;;;;;;;28.30;14.63;;;-0.50;99.90;;;;;;5308395;27;20096;-32
2024/01/12 07:46:52;;;;;;;27.42;13.55;;;-0.50;99.90;;;;;;5310462;27;20041;-31
2024/01/12 07:49:27;;;;;;;35.17;15.93;;;-0.40;99.90;;;;;;5313618;27;20015;-31
2024/01/12 07:51:59;;;;;;;33.60;14.23;;;-0.40;80.90;;;;;;5311340;27;20243;-31
2024/01/12 07:54:33;;;;;;;29.30;14.35;;;-0.40;1.00;;;;;;5294169;27;20026;-32
2024/01/12 07:57:04;;;;;;;28.13;14.82;;;-0.40;1.00;;;;;;5308358;27;20023;-32
2024/01/12 07:59:36;;;;;;;31.67;14.52;;;-0.50;1.00;;;;;;5288511;27;20031;-32
2024/01/12 08:02:07;;;;;;;29.88;14.65;;;-0.40;1.00;;;;;;5294030;27;20040;-32
2024/01/12 08:04:40;;;;;;;26.42;14.30;;;-0.40;1.00;;;;;;5308586;27;20019;-32
2024/01/12 08:07:13;;;;;;;31.60;15.52;;;-0.40;1.00;;;;;;5313065;27;20030;-32
2024/01/12 08:09:52;;;;;;;30.13;15.52;;;-0.40;1.00;;;;;;5312860;27;20031;-33
2024/01/12 08:12:25;;;;;;;26.02;14.20;;;-0.40;1.00;;;;;;5308458;27;20026;-32
2024/01/12 08:14:58;;;;;;;31.42;14.18;;;-0.30;1.00;;;;;;5304211;27;20037;-32
2024/01/12 08:17:30;;;;;;;34.00;16.88;;;-0.30;1.00;;;;;;5309622;27;20019;-32
2024/01/12 08:20:11;;;;;;;32.30;16.50;;;-0.40;1.00;;;;;;5310345;27;20033;-31
2024/01/12 08:22:45;;;;;;;30.98;15.68;;;-0.40;1.00;;;;;;5288017;27;20035;-32
2024/01/12 08:25:19;;;;;;;32.92;16.35;;;-0.30;1.00;;;;;;5312220;27;20019;-31
2024/01/12 08:27:52;;;;;;;27.10;14.90;;;-0.30;1.00;;;;;;5304475;27;20027;-31
2024/01/12 08:30:26;;;;;;;32.20;16.80;;;-0.30;1.00;;;;;;5302158;27;20666;-31
2024/01/12 08:33:00;;;;;;;31.33;16.90;;;-0.30;1.00;;;;;;5300761;27;20037;-31
2024/01/12 08:35:31;;;;;;;33.42;16.13;;;-0.30;1.00;;;;;;5290281;27;20015;-31
2024/01/12 08:38:03;;;;;;;28.83;14.43;;;-0.30;1.00;;;;;;5305059;27;20037;-31
2024/01/12 08:40:34;;;;;;;34.47;16.52;;;-0.20;1.00;;;;;;5303382;27;20253;-31
2024/01/12 08:43:12;;;;;;;30.48;15.07;;;-0.30;1.00;;;;;;5289284;27;20350;-36
2024/01/12 08:45:46;;;;;;;31.25;15.32;;;-0.20;1.00;;;;;;5305342;27;20035;-31
2024/01/12 08:48:19;;;;;;;37.90;17.75;;;-0.30;1.00;;;;;;5311802;28;20315;-32
2024/01/12 08:50:52;;;;;;;31.15;17.63;;;-0.20;1.00;;;;;;5302567;28;20031;-31
2024/01/12 08:53:24;;;;;;;30.90;16.08;;;-0.10;1.00;;;;;;5279526;27;20046;-33
2024/01/12 08:55:55;;;;;;;23.88;14.70;;;-0.20;1.00;;;;;;5306253;28;20035;-33
2024/01/12 08:58:26;;;;;;;33.25;17.27;;;-0.20;1.00;;;;;;5308643;27;20333;-33
2024/01/12 09:01:00;;;;;;;32.75;14.98;;;-0.20;1.00;;;;;;5274337;28;20035;-32
2024/01/12 09:03:32;;;;;;;29.15;15.82;;;-0.30;1.00;;;;;;5285623;28;20318;-32
2024/01/12 09:06:04;;;;;;;30.65;15.13;;;-0.30;1.00;;;;;;5282462;28;20041;-32
2024/01/12 09:08:40;;;;;;;36.53;16.60;;;-0.20;1.00;;;;;;5271559;28;20031;-32
2024/01/12 09:11:11;;;;;;;32.05;14.40;;;-0.10;1.00;;;;;;5296569;28;20031;-31
2024/01/12 09:13:43;;;;;;;33.90;15.57;;;0.00;1.00;;;;;;5305924;27;20027;-31
2024/01/12 09:16:15;;;;;;;28.23;15.85;;;0.00;1.00;;;;;;5306959;28;20246;-30
2024/01/12 09:18:48;;;;;;;31.02;15.48;;;-0.10;1.00;;;;;;5302480;28;20223;-31
2024/01/12 09:21:22;;;;;;;35.05;14.80;;;-0.20;1.00;;;;;;5308081;28;20037;-31
2024/01/12 09:23:59;;;;;;;28.83;13.88;;;-0.10;1.00;;;;;;5290645;28;20192;-30
2024/01/12 09:26:30;;;;;;;36.88;16.35;;;-0.10;1.00;;;;;;5289359;28;20034;-31
2024/01/12 09:29:01;;;;;;;31.25;16.85;;;0.10;1.00;;;;;;5308002;28;20315;-31
2024/01/12 09:31:32;;;;;;;30.08;14.45;;;0.10;1.00;;;;;;5302602;28;20025;-31
2024/01/12 09:34:09;;;;;;;32.47;15.13;;;0.10;99.90;;;;;;5310699;28;20015;-33
2024/01/12 09:36:42;;;;;;;31.77;15.52;;;0.10;99.90;;;;;;5310621;28;20027;-31
2024/01/12 09:39:17;;;;;;;33.20;17.15;;;0.10;99.90;;;;;;5308604;28;20031;-31
2024/01/12 09:41:49;;;;;;;29.75;14.68;;;0.00;99.90;;;;;;5300422;28;20239;-36
2024/01/12 09:44:26;;;;;;;32.40;15.50;;;0.10;99.90;;;;;;5290940;28;20285;-31
2024/01/12 09:46:58;;;;;;;33.20;15.60;;;0.20;99.90;;;;;;5304987;27;20026;-31
2024/01/12 09:49:31;;;;;;;37.38;16.08;;;0.20;99.90;;;;;;5310764;28;20023;-31
2024/01/12 09:52:07;;;;;;;30.67;13.52;;;0.30;99.90;;;;;;5301332;28;20027;-30
2024/01/12 09:54:44;;;;;;;30.85;15.48;;;0.20;99.90;;;;;;5306178;27;20037;-31
2024/01/12 09:57:16;;;;;;;26.83;14.20;;;0.20;99.90;;;;;;5311880;27;20019;-31
2024/01/12 09:59:50;;;;;;;30.88;14.35;;;0.20;99.90;;;;;;5313289;27;20376;-33
2024/01/12 10:02:24;;;;;;;27.52;14.70;;;0.10;99.90;;;;;;5278813;27;20304;-33
2024/01/12 10:04:55;;;;;;;31.10;15.88;;;0.10;99.90;;;;;;5293790;27;20039;-33
2024/01/12 10:07:29;;;;;;;30.63;13.88;;;0.20;99.90;;;;;;5314517;27;20205;-33
2024/01/12 10:10:05;;;;;;;28.13;14.07;;;0.20;99.90;;;;;;5287102;27;20027;-33
2024/01/12 10:12:36;;;;;;;25.83;12.80;;;0.10;99.90;;;;;;5300609;27;20031;-33
2024/01/12 10:15:10;;;;;;;29.67;14.75;;;0.10;99.90;;;;;;5310636;27;20218;-33
2024/01/12 10:17:41;;;;;;;;;;;0.10;99.90;;;;;;5295683;27;20029;-32
2024/01/12 10:20:12;;;;;;;32.33;13.38;;;0.20;99.90;;;;;;5314511;27;19908;-32
2024/01/12 10:22:44;;;;;;;27.38;12.73;;;0.20;99.90;;;;;;5299412;27;20037;-32
2024/01/12 10:25:20;;;;;;;23.75;12.05;;;0.20;99.90;;;;;;5296777;27;20030;-32
2024/01/12 10:27:59;;;;;;;28.40;13.95;;;0.20;99.90;;;;;;5313136;27;20037;-32
2024/01/12 10:30:31;;;;;;;24.73;13.30;;;0.30;99.90;;;;;;5307083;27;20041;-32
2024/01/12 10:33:03;;;;;;;26.88;13.60;;;0.40;99.90;;;;;;5274498;27;20027;-32
2024/01/12 10:35:39;;;;;;;28.67;13.90;;;0.40;99.90;;;;;;5293817;27;20031;-32
2024/01/12 10:38:16;;;;;;;25.08;13.25;;;0.40;99.90;;;;;;5284844;27;20341;-32
2024/01/12 10:40:48;;;;;;;29.05;13.00;;;0.40;99.90;;;;;;5313125;27;20030;-32
2024/01/12 10:43:24;;;;;;;25.88;13.43;;;0.30;99.90;;;;;;5299223;27;20023;-32
2024/01/12 10:45:58;;;;;;;27.17;13.40;;;0.40;99.90;;;;;;5309993;27;20027;-32
2024/01/12 10:48:34;;;;;;;24.42;12.40;;;0.40;99.90;;;;;;5312410;27;20027;-32
2024/01/12 10:51:09;;;;;;;29.10;14.73;;;0.40;99.90;;;;;;5313509;27;20044;-32
2024/01/12 10:53:58;;;;;;;29.67;12.55;;;0.50;99.90;;;;;;5290581;27;20220;-31
2024/01/12 10:56:31;;;;;;;29.13;13.10;;;0.50;99.90;;;;;;5309511;27;20212;-31
2024/01/12 10:59:05;;;;;;;31.20;14.23;;;0.60;99.90;;;;;;5312995;27;20327;-32
2024/01/12 11:01:39;;;;;;;30.02;15.43;;;0.60;99.90;;;;;;5286998;27;20046;-32
2024/01/12 11:04:16;;;;;;;23.58;10.52;;;0.70;90.60;;;;;;5312483;27;20326;-32
2024/01/12 11:06:55;;;;;;;25.38;12.45;;;0.60;27.40;;;;;;5312713;27;20039;-32
2024/01/12 11:09:29;;;;;;;33.55;14.02;;;0.60;77.90;;;;;;5293740;27;20065;-31
2024/01/12 11:12:06;;;;;;;30.15;13.60;;;0.50;48.20;;;;;;5293011;27;20033;-31
2024/01/12 11:14:41;;;;;;;21.60;11.13;;;0.50;27.60;;;;;;5320644;27;20023;-31
2024/01/12 11:17:13;;;;;;;26.08;12.75;;;0.60;3.10;;;;;;5309001;27;20023;-31
2024/01/12 11:19:44;;;;;;;27.13;13.10;;;0.70;22.70;;;;;;5312996;27;20353;-32
2024/01/12 11:22:18;;;;;;;23.27;12.20;;;0.80;1.00;;;;;;5308758;27;20041;-31
2024/01/12 11:24:50;;;;;;;23.98;12.45;;;0.80;1.00;;;;;;5310673;27;20041;-33
2024/01/12 11:27:35;;;;;;;28.20;13.05;;;0.70;1.00;;;;;;5309151;27;20053;-33
2024/01/12 11:30:10;;;;;;;25.30;12.88;;;0.80;1.00;;;;;;5308772;27;20042;-33
2024/01/12 11:32:42;;;;;;;26.55;12.82;;;0.90;1.00;;;;;;5294578;27;20295;-32
2024/01/12 11:35:14;;;;;;;26.02;12.27;;;1.00;1.00;;;;;;5276757;27;20014;-32
2024/01/12 11:37:59;;;;;;;24.77;11.80;;;1.10;1.00;;;;;;5312277;27;20023;-32
2024/01/12 11:40:33;;;;;;;19.67;11.48;;;1.00;1.00;;;;;;5311593;27;20392;-32
2024/01/12 11:43:05;;;;;;;22.77;11.02;;;0.80;1.00;;;;;;5300011;27;20031;-32
2024/01/12 11:45:41;;;;;;;23.20;11.70;;;0.60;1.00;;;;;;5308348;27;20027;-32
2024/01/12 11:48:15;;;;;;;22.88;11.30;;;0.70;1.00;;;;;;5311213;27;20023;-32
2024/01/12 11:50:46;;;;;;;;;;;0.90;1.00;;;;;;5312231;27;20023;-32
2024/01/12 11:53:17;;;;;;;35.92;17.70;;;0.90;1.00;;;;;;5300742;27;19933;-32
2024/01/12 11:55:54;;;;;;;31.38;15.60;;;0.90;1.00;;;;;;5286301;27;20054;-32
2024/01/12 11:58:30;;;;;;;30.85;13.65;;;0.80;1.00;;;;;;5256290;28;20466;-32
2024/01/12 12:01:02;;;;;;;27.63;13.27;;;0.90;1.00;;;;;;5271517;27;20054;-32
2024/01/12 12:03:33;;;;;;;26.20;12.10;;;0.90;1.00;;;;;;5276096;27;20360;-32
2024/01/12 12:06:14;;;;;;;25.73;13.00;;;1.00;1.00;;;;;;5289237;28;20323;-32
2024/01/12 12:08:45;;;;;;;27.23;13.00;;;1.10;1.00;;;;;;5274226;27;20030;-32
2024/01/12 12:11:18;;;;;;;27.25;12.55;;;1.20;1.00;;;;;;5293758;27;20031;-32
2024/01/12 12:13:51;;;;;;;25.83;12.57;;;1.20;1.00;;;;;;5292732;27;20026;-33
2024/01/12 12:16:27;;;;;;;28.10;13.95;;;1.20;1.00;;;;;;5307525;27;20041;-33
2024/01/12 12:19:02;;;;;;;26.77;11.90;;;1.30;1.00;;;;;;5312530;27;20247;-32
2024/01/12 12:21:36;;;;;;;26.90;13.60;;;1.30;1.00;;;;;;5310457;27;20028;-32
2024/01/12 12:24:08;;;;;;;23.42;12.38;;;1.20;1.00;;;;;;5300930;27;20038;-32
2024/01/12 12:26:41;;;;;;;24.63;13.20;;;1.10;1.00;;;;;;5290435;27;20035;-32
2024/01/12 12:29:13;;;;;;;29.83;12.83;;;1.20;1.00;;;;;;5292542;27;20046;-32
2024/01/12 12:31:44;;;;;;;28.70;12.73;;;1.40;1.00;;;;;;5302139;27;20258;-32
2024/01/12 12:34:18;;;;;;;23.90;12.13;;;1.50;1.00;;;;;;5302131;27;20027;-32
2024/01/12 12:36:50;;;;;;;;;;;1.40;1.00;;;;;;5312154;27;20027;-32
2024/01/12 12:39:21;;;;;;;21.42;12.00;;;1.40;1.00;;;;;;5312040;27;20247;-33
2024/01/12 12:41:58;;;;;;;26.50;13.23;;;1.50;1.00;;;;;;5311602;27;20026;-31
2024/01/12 12:44:35;;;;;;;22.77;11.90;;;1.50;1.00;;;;;;5305116;27;20035;-31
2024/01/12 12:47:11;;;;;;;20.92;11.20;;;1.60;1.00;;;;;;5306318;27;20235;-33
2024/01/12 12:49:46;;;;;;;21.30;11.52;;;1.50;1.00;;;;;;5311017;27;20031;-33
2024/01/12 12:52:18;;;;;;;25.65;12.30;;;1.30;1.00;;;;;;5291228;28;20243;-32
2024/01/12 12:54:49;;;;;;;24.35;11.00;;;1.30;1.00;;;;;;5282143;28;20297;-36
2024/01/12 12:57:20;;;;;;;24.02;13.00;;;1.40;1.00;;;;;;5304879;28;20027;-33
2024/01/12 12:59:54;;;;;;;24.10;12.07;;;1.30;1.00;;;;;;5310053;28;20023;-32
2024/01/12 13:02:26;;;;;;;26.73;13.02;;;1.40;1.00;;;;;;5289502;28;20037;-33
2024/01/12 13:05:00;;;;;;;27.80;12.00;;;1.50;1.00;;;;;;5273123;28;20323;-33
2024/01/12 13:07:31;;;;;;;20.85;10.90;;;1.40;1.00;;;;;;5303081;28;20034;-32
2024/01/12 13:10:05;;;;;;;27.60;12.35;;;1.20;1.00;;;;;;5293134;28;20030;-32
2024/01/12 13:12:36;;;;;;;27.55;12.80;;;1.20;1.00;;;;;;5297073;28;20027;-32